createdAt,value
2019-05-22T00:02:27.602Z,95417.28
2019-05-22T00:05:18.992Z,95419.70
2019-05-22T00:07:53.077Z,95422.19
2019-05-22T00:10:28.826Z,95423.18
2019-05-22T00:13:03.812Z,95419.91
2019-05-22T00:15:39.511Z,95421.64
2019-05-22T00:18:12.455Z,95440.30
2019-05-22T00:20:45.199Z,95438.39
2019-05-22T00:23:18.822Z,95439.33
2019-05-22T00:25:54.433Z,95434.39
2019-05-22T00:28:27.611Z,95428.28
2019-05-22T00:31:00.109Z,95423.50
2019-05-22T00:33:36.215Z,95423.92
2019-05-22T00:36:08.356Z,95426.19
2019-05-22T00:38:44.499Z,95438.41
2019-05-22T00:41:21.837Z,95437.80
2019-05-22T00:43:56.991Z,95444.05
2019-05-22T00:46:30.084Z,95444.54
2019-05-22T00:49:04.550Z,95442.89
2019-05-22T00:51:54.978Z,95448.59
2019-05-22T00:54:44.395Z,95443.53
2019-05-22T00:57:42.098Z,95438.25
2019-05-22T01:00:28.763Z,95437.13
2019-05-22T01:03:03.035Z,95437.63
2019-05-22T01:05:37.441Z,95440.02
2019-05-22T01:08:13.668Z,95443.58
2019-05-22T01:10:50.081Z,95436.02
2019-05-22T01:13:23.073Z,95432.38
2019-05-22T01:15:56.283Z,95429.67
2019-05-22T01:18:30.128Z,95432.89
2019-05-22T01:21:04.543Z,95426.88
2019-05-22T01:23:42.802Z,95420.76
2019-05-22T01:26:19.139Z,95421.08
2019-05-22T01:28:51.680Z,95418.70
2019-05-22T01:31:31.407Z,95423.08
2019-05-22T01:34:10.996Z,95422.33
2019-05-22T01:36:45.324Z,95424.73
2019-05-22T01:39:44.139Z,95422.94
2019-05-22T01:42:22.799Z,95429.77
2019-05-22T01:45:03.231Z,95427.47
2019-05-22T01:47:44.120Z,95435.28
2019-05-22T01:50:27.973Z,95424.44
2019-05-22T01:53:00.595Z,95424.90
2019-05-22T01:55:34.549Z,95417.12
2019-05-22T01:58:08.275Z,95415.55
2019-05-22T02:00:44.376Z,95416.81
2019-05-22T02:03:20.714Z,95414.97
2019-05-22T02:05:54.381Z,95402.55
2019-05-22T02:08:33.060Z,95403.61
2019-05-22T02:11:05.725Z,95408.08
2019-05-22T02:13:45.052Z,95406.18
2019-05-22T02:16:17.449Z,95427.75
2019-05-22T02:18:52.592Z,95425.20
2019-05-22T02:21:27.547Z,95431.01
2019-05-22T02:24:01.150Z,95427.87
2019-05-22T02:26:34.413Z,95430.34
2019-05-22T02:29:11.540Z,95434.61
2019-05-22T02:31:44.728Z,95430.41
2019-05-22T02:34:18.300Z,95435.42
2019-05-22T02:36:50.547Z,95440.36
2019-05-22T02:39:35.377Z,95427.97
2019-05-22T02:42:15.148Z,95440.52
2019-05-22T02:44:49.026Z,95440.56
2019-05-22T02:47:22.382Z,95433.20
2019-05-22T02:49:56.052Z,95435.55
2019-05-22T02:52:30.912Z,95438.30
2019-05-22T02:55:05.909Z,95444.56
2019-05-22T02:57:37.823Z,95443.63
2019-05-22T03:00:11.410Z,95452.55
2019-05-22T03:02:53.904Z,95446.81
2019-05-22T03:05:26.862Z,95449.61
2019-05-22T03:07:59.619Z,95456.11
2019-05-22T03:10:32.802Z,95451.06
2019-05-22T03:13:08.771Z,95455.75
2019-05-22T03:15:41.308Z,95451.88
2019-05-22T03:18:15.029Z,95466.91
2019-05-22T03:20:48.579Z,95465.25
2019-05-22T03:23:45.138Z,95469.12
2019-05-22T03:26:21.809Z,95466.41
2019-05-22T03:28:56.675Z,95471.14
2019-05-22T03:31:29.071Z,95472.45
2019-05-22T03:34:04.096Z,95475.22
2019-05-22T03:36:39.043Z,95467.52
2019-05-22T03:39:12.850Z,95476.16
2019-05-22T03:41:47.968Z,95478.84
2019-05-22T03:44:22.725Z,95475.17
2019-05-22T03:46:59.461Z,95484.02
2019-05-22T03:49:31.540Z,95479.38
2019-05-22T03:52:09.729Z,95491.45
2019-05-22T03:54:42.008Z,95488.44
2019-05-22T03:57:14.496Z,95492.34
2019-05-22T03:59:49.036Z,95495.19
2019-05-22T04:02:25.027Z,95491.95
2019-05-22T04:04:58.924Z,95487.83
2019-05-22T04:07:30.844Z,95495.53
2019-05-22T04:10:05.352Z,95495.55
2019-05-22T04:12:40.256Z,95496.20
2019-05-22T04:15:13.454Z,95503.61
2019-05-22T04:17:46.597Z,95498.13
2019-05-22T04:20:21.099Z,95506.33
2019-05-22T04:22:57.858Z,95507.41
2019-05-22T04:25:29.825Z,95505.81
2019-05-22T04:28:04.225Z,95510.42
2019-05-22T04:30:38.401Z,95513.20
2019-05-22T04:33:11.542Z,95504.90
2019-05-22T04:35:46.127Z,95512.13
2019-05-22T04:38:21.995Z,95513.03
2019-05-22T04:40:58.031Z,95514.13
2019-05-22T04:43:34.860Z,95517.02
2019-05-22T04:46:11.489Z,95523.21
2019-05-22T04:48:46.598Z,95527.80
2019-05-22T04:51:30.230Z,95530.24
2019-05-22T04:54:02.270Z,95520.84
2019-05-22T04:56:35.775Z,95524.47
2019-05-22T04:59:10.491Z,95533.72
2019-05-22T05:01:42.198Z,95533.40
2019-05-22T05:04:15.072Z,95538.59
2019-05-22T05:06:50.013Z,95535.29
2019-05-22T05:09:23.951Z,95531.20
2019-05-22T05:11:55.197Z,95538.33
2019-05-22T05:14:27.212Z,95539.88
2019-05-22T05:16:59.506Z,95536.53
2019-05-22T05:19:32.653Z,95537.91
2019-05-22T05:22:06.491Z,95537.67
2019-05-22T05:24:39.226Z,95538.02
2019-05-22T05:27:12.564Z,95539.89
2019-05-22T05:29:47.925Z,95542.23
2019-05-22T05:32:20.269Z,95541.64
2019-05-22T05:34:57.685Z,95539.22
2019-05-22T05:37:29.439Z,95549.87
2019-05-22T05:40:39.934Z,95553.52
2019-05-22T05:43:16.131Z,95548.68
2019-05-22T05:45:50.026Z,95550.98
2019-05-22T05:48:23.972Z,95552.36
2019-05-22T05:51:23.290Z,95547.86
2019-05-22T05:54:09.107Z,95546.44
2019-05-22T05:56:45.470Z,95537.98
2019-05-22T05:59:18.908Z,95548.22
2019-05-22T06:01:58.187Z,95543.90
2019-05-22T06:04:37.751Z,95538.38
2019-05-22T06:07:21.794Z,95540.80
2019-05-22T06:10:34.487Z,95545.34
2019-05-22T06:13:09.819Z,95539.29
2019-05-22T06:16:31.201Z,95546.62
2019-05-22T06:19:04.465Z,95550.70
2019-05-22T06:21:44.302Z,95556.45
2019-05-22T06:24:25.455Z,95563.78
2019-05-22T06:27:22.189Z,95561.56
2019-05-22T06:30:04.100Z,95560.07
2019-05-22T06:33:15.375Z,95562.70
2019-05-22T06:35:50.708Z,95571.55
2019-05-22T06:39:12.777Z,95563.26
2019-05-22T06:41:45.377Z,95566.63
2019-05-22T06:44:36.290Z,95575.52
2019-05-22T06:47:16.019Z,95575.58
2019-05-22T06:49:53.635Z,95569.52
2019-05-22T06:52:27.496Z,95567.27
2019-05-22T06:54:59.160Z,95574.86
2019-05-22T06:57:36.116Z,95582.58
2019-05-22T07:00:21.770Z,95575.52
2019-05-22T07:02:55.856Z,95577.09
2019-05-22T07:05:29.108Z,95589.56
2019-05-22T07:08:05.709Z,95595.55
2019-05-22T07:10:39.804Z,95594.03
2019-05-22T07:13:11.856Z,95596.95
2019-05-22T07:15:48.760Z,95601.13
2019-05-22T07:18:24.262Z,95608.55
2019-05-22T07:21:00.981Z,95602.80
2019-05-22T07:23:34.319Z,95609.69
2019-05-22T07:26:06.150Z,95601.08
2019-05-22T07:28:42.132Z,95613.55
2019-05-22T07:31:15.451Z,95613.08
2019-05-22T07:33:49.924Z,95615.12
2019-05-22T07:36:23.912Z,95609.90
2019-05-22T07:38:58.668Z,95609.28
2019-05-22T07:41:31.227Z,95607.88
2019-05-22T07:44:02.939Z,95607.77
2019-05-22T07:46:36.474Z,95614.66
2019-05-22T07:49:09.118Z,95613.28
2019-05-22T07:51:53.226Z,95615.42
2019-05-22T07:54:17.824Z,95615.80
2019-05-22T07:56:51.252Z,95620.87
2019-05-22T07:59:24.303Z,95628.97
2019-05-22T08:01:58.479Z,95626.45
2019-05-22T08:04:31.687Z,95625.98
2019-05-22T08:07:07.409Z,95623.94
2019-05-22T08:09:40.188Z,95627.13
2019-05-22T08:12:13.024Z,95624.55
2019-05-22T08:14:45.346Z,95625.23
2019-05-22T08:17:18.932Z,95628.20
2019-05-22T08:19:53.167Z,95629.53
2019-05-22T08:22:27.178Z,95627.69
2019-05-22T08:25:01.923Z,95628.92
2019-05-22T08:27:33.208Z,95626.01
2019-05-22T08:30:09.201Z,95621.50
2019-05-22T08:32:43.160Z,95622.16
2019-05-22T08:35:18.188Z,95633.45
2019-05-22T08:37:51.297Z,95630.90
2019-05-22T08:40:23.785Z,95629.12
2019-05-22T08:42:57.748Z,95631.38
2019-05-22T08:45:30.331Z,95629.47
2019-05-22T08:48:04.334Z,95639.38
2019-05-22T08:50:40.334Z,95640.75
2019-05-22T08:53:14.209Z,95653.41
2019-05-22T08:55:47.671Z,95646.21
2019-05-22T08:58:20.334Z,95658.16
2019-05-22T09:00:53.714Z,95656.87
2019-05-22T09:03:27.384Z,95657.70
2019-05-22T09:05:59.369Z,95667.41
2019-05-22T09:08:33.171Z,95668.67
2019-05-22T09:11:07.139Z,95666.63
2019-05-22T09:13:41.061Z,95676.34
2019-05-22T09:16:16.695Z,95669.91
2019-05-22T09:18:51.381Z,95674.91
2019-05-22T09:21:25.037Z,95674.73
2019-05-22T09:23:58.268Z,95675.11
2019-05-22T09:26:33.525Z,95673.06
2019-05-22T09:29:06.433Z,95672.30
2019-05-22T09:31:41.952Z,95678.00
2019-05-22T09:34:16.145Z,95683.59
2019-05-22T09:36:47.967Z,95676.55
2019-05-22T09:39:19.703Z,95690.34
2019-05-22T09:41:52.509Z,95687.54
2019-05-22T09:44:23.974Z,95696.40
2019-05-22T09:46:56.776Z,95694.56
2019-05-22T09:49:29.689Z,95691.49
2019-05-22T09:52:05.185Z,95700.31
2019-05-22T09:54:37.848Z,95702.07
2019-05-22T09:57:11.097Z,95714.41
2019-05-22T09:59:45.954Z,95708.27
2019-05-22T10:02:18.724Z,95721.83
2019-05-22T10:04:52.650Z,95723.23
2019-05-22T10:07:28.220Z,95724.98
2019-05-22T10:10:00.828Z,95717.44
2019-05-22T10:12:33.195Z,95728.64
2019-05-22T10:15:08.264Z,95731.27
2019-05-22T10:17:45.628Z,95729.28
2019-05-22T10:20:17.974Z,95741.12
2019-05-22T10:22:51.750Z,95729.39
2019-05-22T10:25:24.619Z,95725.51
2019-05-22T10:27:59.377Z,95733.66
2019-05-22T10:30:34.360Z,95728.41
2019-05-22T10:33:08.449Z,95728.02
2019-05-22T10:35:43.604Z,95734.98
2019-05-22T10:38:18.642Z,95727.84
2019-05-22T10:40:52.524Z,95732.32
2019-05-22T10:43:23.872Z,95739.30
2019-05-22T10:45:59.569Z,95744.52
2019-05-22T10:48:34.019Z,95742.29
2019-05-22T10:51:06.854Z,95740.95
2019-05-22T10:53:42.140Z,95736.09
2019-05-22T10:56:14.971Z,95747.84
2019-05-22T10:58:48.293Z,95749.51
2019-05-22T11:01:20.822Z,95752.84
2019-05-22T11:03:55.126Z,95751.77
2019-05-22T11:06:27.127Z,95747.23
2019-05-22T11:09:01.818Z,95747.52
2019-05-22T11:11:34.748Z,95757.46
2019-05-22T11:14:09.774Z,95757.52
2019-05-22T11:16:44.152Z,95758.48
2019-05-22T11:19:17.863Z,95762.38
2019-05-22T11:21:52.105Z,95762.52
2019-05-22T11:24:26.363Z,95769.92
2019-05-22T11:27:01.158Z,95777.55
2019-05-22T11:29:33.233Z,95778.77
2019-05-22T11:32:05.226Z,95778.10
2019-05-22T11:34:38.466Z,95777.20
2019-05-22T11:37:11.959Z,95774.30
2019-05-22T11:39:45.381Z,95776.81
2019-05-22T11:42:18.726Z,95781.20
2019-05-22T11:44:51.016Z,95782.72
2019-05-22T11:47:24.002Z,95783.57
2019-05-22T11:49:58.555Z,95780.23
2019-05-22T11:52:31.346Z,95781.88
2019-05-22T11:55:06.103Z,95783.60
2019-05-22T11:57:38.077Z,95786.64
2019-05-22T12:00:10.789Z,95787.11
2019-05-22T12:02:46.797Z,95790.06
2019-05-22T12:05:20.023Z,95783.16
2019-05-22T12:07:52.729Z,95790.73
2019-05-22T12:10:25.469Z,95792.34
2019-05-22T12:12:58.871Z,95794.97
2019-05-22T12:15:31.149Z,95797.84
2019-05-22T12:18:05.049Z,95797.41
2019-05-22T12:20:40.052Z,95793.78
2019-05-22T12:23:12.268Z,95806.17
2019-05-22T12:25:45.623Z,95796.72
2019-05-22T12:28:18.620Z,95805.41
2019-05-22T12:30:50.247Z,95802.87
2019-05-22T12:33:24.751Z,95793.16
2019-05-22T12:35:57.405Z,95795.56
2019-05-22T12:38:31.961Z,95799.13
2019-05-22T12:41:05.288Z,95803.89
2019-05-22T12:43:36.485Z,95806.62
2019-05-22T12:46:10.448Z,95806.70
2019-05-22T12:48:44.696Z,95805.94
2019-05-22T12:51:17.380Z,95813.37
2019-05-22T12:53:51.345Z,95810.27
2019-05-22T12:56:24.329Z,95803.83
2019-05-22T12:58:58.444Z,95814.37
2019-05-22T13:01:32.601Z,95816.53
2019-05-22T13:04:09.077Z,95811.32
2019-05-22T13:06:44.289Z,95816.53
2019-05-22T13:09:16.843Z,95817.14
2019-05-22T13:11:50.395Z,95812.55
2019-05-22T13:14:24.845Z,95825.25
2019-05-22T13:17:00.682Z,95828.64
2019-05-22T13:19:35.247Z,95835.09
2019-05-22T13:22:12.703Z,95829.72
2019-05-22T13:24:45.153Z,95836.97
2019-05-22T13:27:19.889Z,95835.00
2019-05-22T13:29:53.803Z,95839.18
2019-05-22T13:32:29.083Z,95826.68
2019-05-22T13:35:02.752Z,95828.66
2019-05-22T13:37:37.173Z,95840.91
2019-05-22T13:40:26.074Z,95839.63
2019-05-22T13:42:43.421Z,95847.13
2019-05-22T13:45:28.823Z,95849.66
2019-05-22T13:48:03.474Z,95851.88
2019-05-22T13:50:37.307Z,95849.70
2019-05-22T13:53:11.086Z,95859.20
2019-05-22T13:55:42.970Z,95854.01
2019-05-22T13:58:16.038Z,95844.55
2019-05-22T14:00:47.977Z,95851.98
2019-05-22T14:03:22.071Z,95851.42
2019-05-22T14:05:55.504Z,95847.97
2019-05-22T14:08:27.195Z,95850.02
2019-05-22T14:11:00.660Z,95855.55
2019-05-22T14:13:34.873Z,95847.97
2019-05-22T14:16:08.682Z,95851.69
2019-05-22T14:18:42.424Z,95856.84
2019-05-22T14:21:15.910Z,95858.41
2019-05-22T14:23:47.806Z,95853.70
2019-05-22T14:26:21.873Z,95862.80
2019-05-22T14:28:56.094Z,95858.24
2019-05-22T14:31:31.472Z,95867.90
2019-05-22T14:34:05.319Z,95861.46
2019-05-22T14:36:39.679Z,95866.00
2019-05-22T14:39:12.858Z,95870.52
2019-05-22T14:41:45.220Z,95868.26
2019-05-22T14:44:18.001Z,95865.42
2019-05-22T14:46:52.339Z,95860.98
2019-05-22T14:49:23.977Z,95866.81
2019-05-22T14:51:58.227Z,95867.41
2019-05-22T14:54:32.565Z,95870.36
2019-05-22T14:57:07.003Z,95874.61
2019-05-22T14:59:40.148Z,95871.41
2019-05-22T15:02:12.197Z,95873.23
2019-05-22T15:04:45.088Z,95869.90
2019-05-22T15:07:18.410Z,95878.64
2019-05-22T15:09:50.536Z,95876.45
2019-05-22T15:12:24.304Z,95876.06
2019-05-22T15:14:57.647Z,95876.56
2019-05-22T15:17:33.043Z,95876.56
2019-05-22T15:20:05.436Z,95878.45
2019-05-22T15:22:39.031Z,95877.10
2019-05-22T15:25:11.583Z,95875.13
2019-05-22T15:27:43.239Z,95873.31
2019-05-22T15:30:15.392Z,95872.53
2019-05-22T15:32:49.768Z,95870.95
2019-05-22T15:35:21.245Z,95865.83
2019-05-22T15:37:55.787Z,95864.40
2019-05-22T15:40:28.121Z,95867.20
2019-05-22T15:43:04.228Z,95871.75
2019-05-22T15:45:37.303Z,95869.55
2019-05-22T15:48:14.991Z,95867.94
2019-05-22T15:50:48.008Z,95870.80
2019-05-22T15:53:23.875Z,95874.37
2019-05-22T15:55:58.818Z,95874.92
2019-05-22T15:58:31.143Z,95873.53
2019-05-22T16:01:05.553Z,95872.99
2019-05-22T16:03:46.052Z,95879.73
2019-05-22T16:06:19.220Z,95879.13
2019-05-22T16:08:52.143Z,95873.92
2019-05-22T16:11:27.731Z,95879.13
2019-05-22T16:14:02.097Z,95883.05
2019-05-22T16:16:33.948Z,95883.77
2019-05-22T16:19:07.574Z,95888.95
2019-05-22T16:21:43.329Z,95893.42
2019-05-22T16:24:15.490Z,95889.70
2019-05-22T16:26:47.589Z,95896.78
2019-05-22T16:29:22.767Z,95897.89
2019-05-22T16:31:55.815Z,95900.47
2019-05-22T16:34:30.406Z,95903.65
2019-05-22T16:37:03.902Z,95903.86
2019-05-22T16:39:39.905Z,95899.80
2019-05-22T16:42:12.633Z,95894.19
2019-05-22T16:44:46.600Z,95896.76
2019-05-22T16:47:20.663Z,95894.03
2019-05-22T16:49:54.624Z,95885.46
2019-05-22T16:52:29.765Z,95886.64
2019-05-22T16:55:02.803Z,95884.50
2019-05-22T16:57:36.969Z,95887.92
2019-05-22T17:00:11.792Z,95892.60
2019-05-22T17:02:47.135Z,95897.04
2019-05-22T17:05:20.891Z,95893.07
2019-05-22T17:07:54.705Z,95902.22
2019-05-22T17:10:30.463Z,95908.14
2019-05-22T17:13:06.020Z,95912.08
2019-05-22T17:15:40.770Z,95909.97
2019-05-22T17:18:13.136Z,95905.73
2019-05-22T17:20:47.099Z,95908.14
2019-05-22T17:23:21.611Z,95917.02
2019-05-22T17:25:56.618Z,95912.75
2019-05-22T17:28:36.594Z,95915.41
2019-05-22T17:31:11.507Z,95921.41
2019-05-22T17:33:47.208Z,95915.26
2019-05-22T17:36:21.135Z,95912.08
2019-05-22T17:38:55.124Z,95915.33
2019-05-22T17:41:29.560Z,95909.72
2019-05-22T17:44:04.218Z,95912.87
2019-05-22T17:46:38.590Z,95911.09
2019-05-22T17:49:12.007Z,95906.29
2019-05-22T17:51:47.493Z,95907.72
2019-05-22T17:54:23.501Z,95905.76
2019-05-22T17:56:56.245Z,95911.80
2019-05-22T17:59:28.146Z,95916.09
2019-05-22T18:02:01.764Z,95918.88
2019-05-22T18:04:34.924Z,95915.66
2019-05-22T18:07:08.409Z,95918.63
2019-05-22T18:09:41.223Z,95916.37
2019-05-22T18:12:13.411Z,95918.91
2019-05-22T18:14:45.852Z,95921.23
2019-05-22T18:17:20.336Z,95917.13
2019-05-22T18:19:55.879Z,95923.98
2019-05-22T18:22:27.904Z,95932.02
2019-05-22T18:25:03.285Z,95926.88
2019-05-22T18:27:36.584Z,95937.38
2019-05-22T18:30:09.527Z,95944.89
2019-05-22T18:32:42.588Z,95943.95
2019-05-22T18:35:16.087Z,95946.81
2019-05-22T18:37:49.880Z,95949.03
2019-05-22T18:40:23.974Z,95947.41
2019-05-22T18:42:56.885Z,95952.35
2019-05-22T18:45:28.793Z,95953.45
2019-05-22T18:48:01.232Z,95949.64
2019-05-22T18:50:35.652Z,95959.33
2019-05-22T18:53:08.290Z,95961.78
2019-05-22T18:55:40.121Z,95967.81
2019-05-22T18:58:12.328Z,95965.42
2019-05-22T19:00:45.268Z,95960.97
2019-05-22T19:03:20.756Z,95971.92
2019-05-22T19:05:54.623Z,95971.86
2019-05-22T19:08:28.209Z,95968.93
2019-05-22T19:11:03.304Z,95979.83
2019-05-22T19:13:36.099Z,95974.62
2019-05-22T19:16:10.137Z,95983.83
2019-05-22T19:18:45.691Z,95991.48
2019-05-22T19:21:18.199Z,95992.64
2019-05-22T19:23:52.677Z,95993.23
2019-05-22T19:26:26.149Z,95993.47
2019-05-22T19:29:00.316Z,95997.30
2019-05-22T19:31:32.478Z,96003.12
2019-05-22T19:34:06.517Z,95999.36
2019-05-22T19:36:40.262Z,96008.36
2019-05-22T19:39:12.451Z,96008.41
2019-05-22T19:41:59.884Z,96012.82
2019-05-22T19:44:18.487Z,96021.22
2019-05-22T19:46:51.994Z,96011.17
2019-05-22T19:49:25.061Z,96015.98
2019-05-22T19:51:57.640Z,96025.61
2019-05-22T19:54:29.758Z,96027.84
2019-05-22T19:57:01.474Z,96027.31
2019-05-22T19:59:33.581Z,96031.76
2019-05-22T20:02:10.190Z,96025.88
2019-05-22T20:04:44.728Z,96022.28
2019-05-22T20:07:17.675Z,96026.48
2019-05-22T20:09:50.949Z,96029.47
2019-05-22T20:12:25.017Z,96024.59
2019-05-22T20:14:57.046Z,96020.80
2019-05-22T20:17:30.717Z,96023.66
2019-05-22T20:20:05.867Z,96020.86
2019-05-22T20:22:40.157Z,96020.27
2019-05-22T20:25:13.955Z,96018.51
2019-05-22T20:27:45.890Z,96020.38
2019-05-22T20:30:22.936Z,96021.02
2019-05-22T20:32:57.447Z,96025.48
2019-05-22T20:35:30.652Z,96026.00
2019-05-22T20:38:06.190Z,96026.67
2019-05-22T20:40:39.983Z,96026.23
2019-05-22T20:43:13.078Z,96022.23
2019-05-22T20:45:46.451Z,96029.73
2019-05-22T20:48:28.156Z,96027.11
2019-05-22T20:51:04.011Z,96027.98
2019-05-22T20:53:52.889Z,96031.38
2019-05-22T20:56:14.115Z,96030.83
2019-05-22T20:58:48.242Z,96035.02
2019-05-22T21:01:22.066Z,96034.69
2019-05-22T21:03:53.676Z,96036.49
2019-05-22T21:06:29.086Z,96034.27
2019-05-22T21:09:01.970Z,96042.86
2019-05-22T21:11:36.410Z,96036.11
2019-05-22T21:14:08.439Z,96048.47
2019-05-22T21:16:41.360Z,96046.78
2019-05-22T21:19:13.642Z,96042.98
2019-05-22T21:21:48.442Z,96046.72
2019-05-22T21:24:21.875Z,96046.23
2019-05-22T21:26:56.454Z,96049.62
2019-05-22T21:29:28.664Z,96047.73
2019-05-22T21:32:01.108Z,96048.89
2019-05-22T21:34:33.881Z,96047.71
2019-05-22T21:37:11.270Z,96043.66
2019-05-22T21:39:43.282Z,96047.94
2019-05-22T21:42:18.132Z,96046.92
2019-05-22T21:44:57.991Z,96045.96
2019-05-22T21:47:31.189Z,96041.04
2019-05-22T21:50:05.087Z,96049.22
2019-05-22T21:52:37.401Z,96043.74
2019-05-22T21:55:12.655Z,96042.88
2019-05-22T21:57:46.318Z,96049.22
2019-05-22T22:00:40.666Z,96051.46
2019-05-22T22:03:14.621Z,96050.83
2019-05-22T22:05:47.420Z,96046.23
2019-05-22T22:08:19.051Z,96052.52
2019-05-22T22:10:53.474Z,96053.45
2019-05-22T22:13:25.017Z,96056.38
2019-05-22T22:15:57.662Z,96050.17
2019-05-22T22:18:31.173Z,96059.97
2019-05-22T22:21:05.976Z,96052.61
2019-05-22T22:23:44.589Z,96052.94
2019-05-22T22:26:25.612Z,96051.79
2019-05-22T22:28:53.405Z,96056.08
2019-05-22T22:31:28.805Z,96054.73
2019-05-22T22:34:10.469Z,96053.40
2019-05-22T22:36:43.627Z,96052.44
2019-05-22T22:39:17.883Z,96046.97
2019-05-22T22:41:53.544Z,96049.73
2019-05-22T22:44:25.784Z,96054.19
2019-05-22T22:47:05.779Z,96052.63
2019-05-22T22:49:40.478Z,96055.52
2019-05-22T22:52:16.263Z,96055.20
2019-05-22T22:54:48.533Z,96052.02
2019-05-22T22:57:22.802Z,96055.80
2019-05-22T22:59:56.657Z,96054.33
2019-05-22T23:02:30.853Z,96055.52
2019-05-22T23:05:04.780Z,96055.80
2019-05-22T23:07:41.445Z,96055.93
2019-05-22T23:10:14.531Z,96062.22
2019-05-22T23:12:48.810Z,96059.32
2019-05-22T23:15:23.991Z,96064.47
2019-05-22T23:17:56.698Z,96065.94
2019-05-22T23:20:29.108Z,96071.59
2019-05-22T23:23:01.301Z,96072.28
2019-05-22T23:25:35.209Z,96067.93
2019-05-22T23:28:08.454Z,96074.34
2019-05-22T23:30:43.025Z,96074.98
2019-05-22T23:33:16.585Z,96078.47
2019-05-22T23:35:52.079Z,96076.51
2019-05-22T23:38:26.105Z,96078.52
2019-05-22T23:41:00.112Z,96080.12
2019-05-22T23:43:32.318Z,96074.61
2019-05-22T23:46:06.032Z,96075.67
2019-05-22T23:48:41.640Z,96076.45
2019-05-22T23:51:12.909Z,96076.51
2019-05-22T23:53:48.636Z,96081.65
2019-05-22T23:56:22.690Z,96072.23
2019-05-22T23:58:56.656Z,96076.49
